Terminal Aerodrome Forecast
Issued by NWS

Home | Current Version | Previous Version | Text Only | Print | Product List | Glossary On
Versions: 1 2 3 4 5 6 7 8 9 10 11 12 13 14
000
FTUS46 KSEW 230500
TAFBFI
TAF
KBFI 230520Z 2306/2406 16008KT P6SM -SHRA SCT028 OVC045
      TEMPO 2306/2310 6SM -SHRA BR BKN028 OVC045
     FM231000 16006KT P6SM VCSH SCT028 BKN050
     FM240100 16008KT P6SM -RA BKN028 OVC045
     FM240300 17010KT 6SM -RA OVC018=

USA.gov is the U.S. government's official web portal to all federal, state and local government web resources and services.